sensor_id;sensor_type;location;lat;lon;timestamp;P1;durP1;ratioP1;P2;durP2;ratioP2
13493;SDS011;6819;50.886;4.332;2023-04-01T00:01:17;8.18;;;1.75;;
13493;SDS011;6819;50.886;4.332;2023-04-01T00:03:43;9.40;;;2.25;;
13493;SDS011;6819;50.886;4.332;2023-04-01T00:06:10;5.38;;;1.63;;
13493;SDS011;6819;50.886;4.332;2023-04-01T00:08:38;3.38;;;1.52;;
13493;SDS011;6819;50.886;4.332;2023-04-01T00:11:04;6.93;;;1.65;;
13493;SDS011;6819;50.886;4.332;2023-04-01T00:13:30;4.82;;;1.90;;
13493;SDS011;6819;50.886;4.332;2023-04-01T00:15:57;6.18;;;1.67;;
13493;SDS011;6819;50.886;4.332;2023-04-01T00:18:23;6.40;;;1.58;;
13493;SDS011;6819;50.886;4.332;2023-04-01T00:20:50;6.18;;;1.70;;
13493;SDS011;6819;50.886;4.332;2023-04-01T00:23:17;7.32;;;1.45;;
13493;SDS011;6819;50.886;4.332;2023-04-01T00:25:43;6.07;;;1.73;;
13493;SDS011;6819;50.886;4.332;2023-04-01T00:28:12;6.15;;;1.63;;
13493;SDS011;6819;50.886;4.332;2023-04-01T00:30:38;9.88;;;1.52;;
13493;SDS011;6819;50.886;4.332;2023-04-01T00:33:04;5.25;;;1.35;;
13493;SDS011;6819;50.886;4.332;2023-04-01T00:35:30;5.72;;;1.20;;
13493;SDS011;6819;50.886;4.332;2023-04-01T00:37:57;2.38;;;0.90;;
13493;SDS011;6819;50.886;4.332;2023-04-01T00:40:37;1.50;;;1.27;;
13493;SDS011;6819;50.886;4.332;2023-04-01T00:43:08;3.92;;;1.27;;
13493;SDS011;6819;50.886;4.332;2023-04-01T00:45:36;7.30;;;1.63;;
13493;SDS011;6819;50.886;4.332;2023-04-01T00:48:14;3.15;;;1.25;;
13493;SDS011;6819;50.886;4.332;2023-04-01T00:50:41;8.38;;;1.67;;
13493;SDS011;6819;50.886;4.332;2023-04-01T00:53:08;5.93;;;1.30;;
13493;SDS011;6819;50.886;4.332;2023-04-01T00:55:35;5.15;;;1.50;;
13493;SDS011;6819;50.886;4.332;2023-04-01T00:58:03;5.25;;;1.50;;
13493;SDS011;6819;50.886;4.332;2023-04-01T01:00:30;4.30;;;1.50;;
13493;SDS011;6819;50.886;4.332;2023-04-01T01:02:57;4.45;;;1.10;;
13493;SDS011;6819;50.886;4.332;2023-04-01T01:05:26;2.08;;;1.17;;
13493;SDS011;6819;50.886;4.332;2023-04-01T01:10:31;3.60;;;1.27;;
13493;SDS011;6819;50.886;4.332;2023-04-01T01:15:51;5.45;;;1.38;;
13493;SDS011;6819;50.886;4.332;2023-04-01T01:18:21;4.60;;;1.17;;
13493;SDS011;6819;50.886;4.332;2023-04-01T01:26:16;1.65;;;0.93;;
13493;SDS011;6819;50.886;4.332;2023-04-01T01:31:23;2.10;;;1.20;;
13493;SDS011;6819;50.886;4.332;2023-04-01T01:33:57;3.97;;;1.42;;
13493;SDS011;6819;50.886;4.332;2023-04-01T01:36:27;3.63;;;1.45;;
13493;SDS011;6819;50.886;4.332;2023-04-01T01:38:54;4.35;;;1.67;;
13493;SDS011;6819;50.886;4.332;2023-04-01T01:41:21;3.75;;;1.83;;
13493;SDS011;6819;50.886;4.332;2023-04-01T01:43:48;6.32;;;2.40;;
13493;SDS011;6819;50.886;4.332;2023-04-01T01:46:18;6.63;;;2.00;;
13493;SDS011;6819;50.886;4.332;2023-04-01T01:48:45;4.55;;;2.05;;
13493;SDS011;6819;50.886;4.332;2023-04-01T01:51:12;4.97;;;2.65;;
13493;SDS011;6819;50.886;4.332;2023-04-01T01:53:39;6.47;;;2.60;;
13493;SDS011;6819;50.886;4.332;2023-04-01T01:56:05;6.10;;;2.78;;
13493;SDS011;6819;50.886;4.332;2023-04-01T01:58:32;3.63;;;2.35;;
13493;SDS011;6819;50.886;4.332;2023-04-01T02:01:06;6.22;;;2.70;;
13493;SDS011;6819;50.886;4.332;2023-04-01T02:03:33;4.18;;;2.97;;
13493;SDS011;6819;50.886;4.332;2023-04-01T02:06:00;4.50;;;2.70;;
13493;SDS011;6819;50.886;4.332;2023-04-01T02:09:09;8.48;;;2.40;;
13493;SDS011;6819;50.886;4.332;2023-04-01T02:11:17;6.55;;;2.83;;
13493;SDS011;6819;50.886;4.332;2023-04-01T02:16:38;5.35;;;3.00;;
13493;SDS011;6819;50.886;4.332;2023-04-01T02:19:05;10.88;;;2.63;;
13493;SDS011;6819;50.886;4.332;2023-04-01T02:21:33;5.53;;;2.33;;
13493;SDS011;6819;50.886;4.332;2023-04-01T02:24:00;5.93;;;2.10;;
13493;SDS011;6819;50.886;4.332;2023-04-01T02:26:26;8.82;;;2.53;;
13493;SDS011;6819;50.886;4.332;2023-04-01T02:28:53;7.47;;;2.75;;
13493;SDS011;6819;50.886;4.332;2023-04-01T02:31:19;5.00;;;2.50;;
13493;SDS011;6819;50.886;4.332;2023-04-01T02:33:45;8.23;;;3.03;;
13493;SDS011;6819;50.886;4.332;2023-04-01T02:36:12;9.07;;;2.65;;
13493;SDS011;6819;50.886;4.332;2023-04-01T02:38:39;8.05;;;2.53;;
13493;SDS011;6819;50.886;4.332;2023-04-01T02:41:06;6.28;;;2.40;;
13493;SDS011;6819;50.886;4.332;2023-04-01T02:43:32;8.73;;;2.20;;
13493;SDS011;6819;50.886;4.332;2023-04-01T02:45:58;5.60;;;2.00;;
13493;SDS011;6819;50.886;4.332;2023-04-01T02:48:24;4.75;;;2.08;;
13493;SDS011;6819;50.886;4.332;2023-04-01T02:50:50;4.53;;;2.30;;
13493;SDS011;6819;50.886;4.332;2023-04-01T02:53:16;12.43;;;2.70;;
13493;SDS011;6819;50.886;4.332;2023-04-01T02:55:43;8.55;;;2.00;;
13493;SDS011;6819;50.886;4.332;2023-04-01T02:58:10;7.18;;;2.28;;
13493;SDS011;6819;50.886;4.332;2023-04-01T03:00:36;7.22;;;2.30;;
13493;SDS011;6819;50.886;4.332;2023-04-01T03:03:02;7.20;;;2.47;;
13493;SDS011;6819;50.886;4.332;2023-04-01T03:05:28;9.30;;;2.10;;
13493;SDS011;6819;50.886;4.332;2023-04-01T03:07:54;5.68;;;2.22;;
13493;SDS011;6819;50.886;4.332;2023-04-01T03:10:20;3.75;;;2.15;;
13493;SDS011;6819;50.886;4.332;2023-04-01T03:12:46;7.18;;;2.50;;
13493;SDS011;6819;50.886;4.332;2023-04-01T03:15:12;6.82;;;2.75;;
13493;SDS011;6819;50.886;4.332;2023-04-01T03:17:40;8.02;;;2.90;;
13493;SDS011;6819;50.886;4.332;2023-04-01T03:20:07;7.00;;;2.40;;
13493;SDS011;6819;50.886;4.332;2023-04-01T03:22:33;9.05;;;3.38;;
13493;SDS011;6819;50.886;4.332;2023-04-01T03:25:00;11.85;;;4.00;;
13493;SDS011;6819;50.886;4.332;2023-04-01T03:27:26;10.10;;;3.60;;
13493;SDS011;6819;50.886;4.332;2023-04-01T03:29:52;9.00;;;3.35;;
13493;SDS011;6819;50.886;4.332;2023-04-01T03:32:18;10.90;;;4.00;;
13493;SDS011;6819;50.886;4.332;2023-04-01T03:34:44;11.75;;;3.90;;
13493;SDS011;6819;50.886;4.332;2023-04-01T03:37:10;10.15;;;4.03;;
13493;SDS011;6819;50.886;4.332;2023-04-01T03:39:36;12.30;;;4.82;;
13493;SDS011;6819;50.886;4.332;2023-04-01T03:42:02;8.95;;;4.28;;
13493;SDS011;6819;50.886;4.332;2023-04-01T03:44:32;11.32;;;4.38;;
13493;SDS011;6819;50.886;4.332;2023-04-01T03:46:58;11.18;;;4.38;;
13493;SDS011;6819;50.886;4.332;2023-04-01T03:49:24;11.93;;;4.40;;
13493;SDS011;6819;50.886;4.332;2023-04-01T03:51:51;12.32;;;4.40;;
13493;SDS011;6819;50.886;4.332;2023-04-01T03:54:17;11.95;;;4.00;;
13493;SDS011;6819;50.886;4.332;2023-04-01T03:56:45;11.10;;;4.40;;
13493;SDS011;6819;50.886;4.332;2023-04-01T03:59:11;10.50;;;4.20;;
13493;SDS011;6819;50.886;4.332;2023-04-01T04:01:37;13.48;;;4.15;;
13493;SDS011;6819;50.886;4.332;2023-04-01T04:04:03;10.73;;;4.35;;
13493;SDS011;6819;50.886;4.332;2023-04-01T04:06:30;11.60;;;3.80;;
13493;SDS011;6819;50.886;4.332;2023-04-01T04:08:56;15.05;;;4.18;;
13493;SDS011;6819;50.886;4.332;2023-04-01T04:11:22;9.30;;;4.20;;
13493;SDS011;6819;50.886;4.332;2023-04-01T04:13:48;12.45;;;4.57;;
13493;SDS011;6819;50.886;4.332;2023-04-01T04:16:14;7.68;;;3.85;;
13493;SDS011;6819;50.886;4.332;2023-04-01T04:18:41;10.32;;;3.75;;
13493;SDS011;6819;50.886;4.332;2023-04-01T04:21:10;6.50;;;3.33;;
13493;SDS011;6819;50.886;4.332;2023-04-01T04:23:36;8.05;;;3.58;;
13493;SDS011;6819;50.886;4.332;2023-04-01T04:26:06;10.18;;;3.72;;
13493;SDS011;6819;50.886;4.332;2023-04-01T04:28:32;7.35;;;3.70;;
13493;SDS011;6819;50.886;4.332;2023-04-01T04:30:59;7.97;;;3.38;;
13493;SDS011;6819;50.886;4.332;2023-04-01T04:33:25;6.22;;;3.50;;
13493;SDS011;6819;50.886;4.332;2023-04-01T04:35:54;14.38;;;3.03;;
13493;SDS011;6819;50.886;4.332;2023-04-01T04:38:20;7.13;;;3.03;;
13493;SDS011;6819;50.886;4.332;2023-04-01T04:40:46;5.68;;;3.17;;
13493;SDS011;6819;50.886;4.332;2023-04-01T04:43:13;4.47;;;2.45;;
13493;SDS011;6819;50.886;4.332;2023-04-01T04:45:40;8.25;;;2.75;;
13493;SDS011;6819;50.886;4.332;2023-04-01T04:48:09;3.78;;;2.10;;
13493;SDS011;6819;50.886;4.332;2023-04-01T04:50:38;3.92;;;2.45;;
13493;SDS011;6819;50.886;4.332;2023-04-01T04:53:05;6.43;;;3.00;;
13493;SDS011;6819;50.886;4.332;2023-04-01T04:55:31;6.53;;;2.53;;
13493;SDS011;6819;50.886;4.332;2023-04-01T04:57:57;5.22;;;2.60;;
13493;SDS011;6819;50.886;4.332;2023-04-01T05:00:23;4.00;;;2.10;;
13493;SDS011;6819;50.886;4.332;2023-04-01T05:02:49;5.03;;;2.05;;
13493;SDS011;6819;50.886;4.332;2023-04-01T05:05:15;2.40;;;1.83;;
13493;SDS011;6819;50.886;4.332;2023-04-01T05:07:41;4.15;;;1.85;;
13493;SDS011;6819;50.886;4.332;2023-04-01T05:10:07;5.03;;;1.77;;
13493;SDS011;6819;50.886;4.332;2023-04-01T05:12:34;5.00;;;2.10;;
13493;SDS011;6819;50.886;4.332;2023-04-01T05:15:05;3.03;;;2.28;;
13493;SDS011;6819;50.886;4.332;2023-04-01T05:17:33;4.97;;;2.08;;
13493;SDS011;6819;50.886;4.332;2023-04-01T05:19:59;4.90;;;2.30;;
13493;SDS011;6819;50.886;4.332;2023-04-01T05:22:25;3.70;;;2.50;;
13493;SDS011;6819;50.886;4.332;2023-04-01T05:24:51;6.15;;;2.83;;
13493;SDS011;6819;50.886;4.332;2023-04-01T05:27:17;6.78;;;2.97;;
13493;SDS011;6819;50.886;4.332;2023-04-01T05:29:43;5.63;;;2.95;;
13493;SDS011;6819;50.886;4.332;2023-04-01T05:32:09;5.38;;;3.10;;
13493;SDS011;6819;50.886;4.332;2023-04-01T05:34:35;10.73;;;3.63;;
13493;SDS011;6819;50.886;4.332;2023-04-01T05:37:01;7.32;;;3.47;;
13493;SDS011;6819;50.886;4.332;2023-04-01T05:39:27;9.98;;;3.65;;
13493;SDS011;6819;50.886;4.332;2023-04-01T05:41:53;8.90;;;3.60;;
13493;SDS011;6819;50.886;4.332;2023-04-01T05:44:19;7.40;;;3.60;;
13493;SDS011;6819;50.886;4.332;2023-04-01T05:46:45;10.02;;;4.40;;
13493;SDS011;6819;50.886;4.332;2023-04-01T05:49:11;7.85;;;4.22;;
13493;SDS011;6819;50.886;4.332;2023-04-01T05:51:37;7.70;;;3.97;;
13493;SDS011;6819;50.886;4.332;2023-04-01T05:54:04;12.85;;;4.53;;
13493;SDS011;6819;50.886;4.332;2023-04-01T05:56:30;9.60;;;4.55;;
13493;SDS011;6819;50.886;4.332;2023-04-01T05:58:56;7.47;;;4.30;;
13493;SDS011;6819;50.886;4.332;2023-04-01T06:01:22;12.18;;;4.70;;
13493;SDS011;6819;50.886;4.332;2023-04-01T06:03:48;8.63;;;4.53;;
13493;SDS011;6819;50.886;4.332;2023-04-01T06:06:25;10.50;;;4.85;;
13493;SDS011;6819;50.886;4.332;2023-04-01T06:08:52;7.65;;;4.47;;
13493;SDS011;6819;50.886;4.332;2023-04-01T06:18:48;10.50;;;4.80;;
13493;SDS011;6819;50.886;4.332;2023-04-01T06:21:38;14.00;;;5.45;;
13493;SDS011;6819;50.886;4.332;2023-04-01T06:26:39;11.48;;;5.43;;
13493;SDS011;6819;50.886;4.332;2023-04-01T06:36:42;7.85;;;4.57;;
13493;SDS011;6819;50.886;4.332;2023-04-01T06:44:37;7.75;;;4.55;;
13493;SDS011;6819;50.886;4.332;2023-04-01T06:49:55;10.38;;;4.53;;
13493;SDS011;6819;50.886;4.332;2023-04-01T06:54:58;10.05;;;4.25;;
13493;SDS011;6819;50.886;4.332;2023-04-01T06:57:31;11.88;;;4.70;;
13493;SDS011;6819;50.886;4.332;2023-04-01T06:59:59;6.22;;;4.28;;
13493;SDS011;6819;50.886;4.332;2023-04-01T07:02:34;9.82;;;5.00;;
13493;SDS011;6819;50.886;4.332;2023-04-01T07:05:02;12.32;;;4.43;;
13493;SDS011;6819;50.886;4.332;2023-04-01T07:07:33;9.40;;;4.18;;
13493;SDS011;6819;50.886;4.332;2023-04-01T07:10:00;9.77;;;4.00;;
13493;SDS011;6819;50.886;4.332;2023-04-01T07:14:54;9.30;;;3.35;;
13493;SDS011;6819;50.886;4.332;2023-04-01T07:17:22;6.35;;;2.40;;
13493;SDS011;6819;50.886;4.332;2023-04-01T07:19:52;3.03;;;1.92;;
13493;SDS011;6819;50.886;4.332;2023-04-01T07:24:46;5.13;;;1.90;;
13493;SDS011;6819;50.886;4.332;2023-04-01T07:27:13;5.72;;;1.67;;
13493;SDS011;6819;50.886;4.332;2023-04-01T07:29:40;3.15;;;1.42;;
13493;SDS011;6819;50.886;4.332;2023-04-01T07:32:17;4.53;;;1.98;;
13493;SDS011;6819;50.886;4.332;2023-04-01T07:34:55;2.80;;;1.25;;
13493;SDS011;6819;50.886;4.332;2023-04-01T07:40:02;1.70;;;1.02;;
13493;SDS011;6819;50.886;4.332;2023-04-01T07:44:59;1.08;;;0.77;;
13493;SDS011;6819;50.886;4.332;2023-04-01T07:47:34;0.77;;;0.77;;
13493;SDS011;6819;50.886;4.332;2023-04-01T07:55:42;2.08;;;1.10;;
13493;SDS011;6819;50.886;4.332;2023-04-01T08:15:46;3.22;;;1.35;;
13493;SDS011;6819;50.886;4.332;2023-04-01T08:20:46;4.13;;;1.50;;
13493;SDS011;6819;50.886;4.332;2023-04-01T08:23:20;1.65;;;1.27;;
13493;SDS011;6819;50.886;4.332;2023-04-01T08:25:58;1.40;;;1.23;;
13493;SDS011;6819;50.886;4.332;2023-04-01T08:28:29;2.47;;;1.30;;
13493;SDS011;6819;50.886;4.332;2023-04-01T08:30:57;1.58;;;1.20;;
13493;SDS011;6819;50.886;4.332;2023-04-01T08:33:25;2.42;;;1.20;;
13493;SDS011;6819;50.886;4.332;2023-04-01T08:38:21;2.60;;;1.35;;
13493;SDS011;6819;50.886;4.332;2023-04-01T08:50:56;3.35;;;1.52;;
13493;SDS011;6819;50.886;4.332;2023-04-01T08:56:30;2.63;;;1.42;;
13493;SDS011;6819;50.886;4.332;2023-04-01T08:59:09;2.70;;;1.30;;
13493;SDS011;6819;50.886;4.332;2023-04-01T09:12:12;4.50;;;1.48;;
13493;SDS011;6819;50.886;4.332;2023-04-01T09:27:18;4.40;;;1.73;;
13493;SDS011;6819;50.886;4.332;2023-04-01T09:35:23;2.83;;;1.90;;
13493;SDS011;6819;50.886;4.332;2023-04-01T09:37:53;3.88;;;1.90;;
13493;SDS011;6819;50.886;4.332;2023-04-01T09:45:45;4.25;;;2.20;;
13493;SDS011;6819;50.886;4.332;2023-04-01T09:48:20;5.10;;;2.50;;
13493;SDS011;6819;50.886;4.332;2023-04-01T09:51:36;4.25;;;1.95;;
13493;SDS011;6819;50.886;4.332;2023-04-01T09:56:27;3.78;;;2.00;;
13493;SDS011;6819;50.886;4.332;2023-04-01T09:59:42;3.90;;;2.10;;
13493;SDS011;6819;50.886;4.332;2023-04-01T10:09:44;4.45;;;2.00;;
13493;SDS011;6819;50.886;4.332;2023-04-01T10:49:26;1.13;;;1.00;;
13493;SDS011;6819;50.886;4.332;2023-04-01T10:54:17;1.83;;;0.88;;
13493;SDS011;6819;50.886;4.332;2023-04-01T10:56:53;1.65;;;1.10;;
13493;SDS011;6819;50.886;4.332;2023-04-01T11:01:55;0.82;;;0.77;;
13493;SDS011;6819;50.886;4.332;2023-04-01T11:10:18;0.68;;;0.57;;
13493;SDS011;6819;50.886;4.332;2023-04-01T11:15:39;1.00;;;0.90;;
13493;SDS011;6819;50.886;4.332;2023-04-01T11:18:35;4.00;;;0.90;;
13493;SDS011;6819;50.886;4.332;2023-04-01T11:33:38;1.65;;;1.10;;
13493;SDS011;6819;50.886;4.332;2023-04-01T12:07:03;2.30;;;1.20;;
13493;SDS011;6819;50.886;4.332;2023-04-01T12:09:42;1.27;;;1.10;;
13493;SDS011;6819;50.886;4.332;2023-04-01T12:17:30;1.55;;;1.23;;
13493;SDS011;6819;50.886;4.332;2023-04-01T12:28:00;2.80;;;1.67;;
13493;SDS011;6819;50.886;4.332;2023-04-01T12:33:15;3.92;;;1.60;;
13493;SDS011;6819;50.886;4.332;2023-04-01T12:43:19;1.95;;;1.50;;
13493;SDS011;6819;50.886;4.332;2023-04-01T12:48:27;2.20;;;1.40;;
13493;SDS011;6819;50.886;4.332;2023-04-01T12:56:28;3.03;;;1.55;;
13493;SDS011;6819;50.886;4.332;2023-04-01T12:59:04;2.92;;;1.45;;
13493;SDS011;6819;50.886;4.332;2023-04-01T13:01:46;3.00;;;1.60;;
13493;SDS011;6819;50.886;4.332;2023-04-01T13:04:36;2.25;;;1.50;;
13493;SDS011;6819;50.886;4.332;2023-04-01T13:12:36;1.63;;;1.40;;
13493;SDS011;6819;50.886;4.332;2023-04-01T13:27:51;2.13;;;1.10;;
13493;SDS011;6819;50.886;4.332;2023-04-01T13:35:20;1.77;;;1.42;;
13493;SDS011;6819;50.886;4.332;2023-04-01T13:47:59;3.38;;;1.30;;
13493;SDS011;6819;50.886;4.332;2023-04-01T14:08:40;3.05;;;1.40;;
13493;SDS011;6819;50.886;4.332;2023-04-01T14:19:08;3.45;;;1.50;;
13493;SDS011;6819;50.886;4.332;2023-04-01T14:21:43;2.90;;;1.52;;
13493;SDS011;6819;50.886;4.332;2023-04-01T14:29:54;6.00;;;1.50;;
13493;SDS011;6819;50.886;4.332;2023-04-01T14:40:40;4.10;;;1.67;;
13493;SDS011;6819;50.886;4.332;2023-04-01T14:45:59;2.03;;;1.30;;
13493;SDS011;6819;50.886;4.332;2023-04-01T14:54:08;3.03;;;1.30;;
13493;SDS011;6819;50.886;4.332;2023-04-01T14:56:42;3.85;;;1.40;;
13493;SDS011;6819;50.886;4.332;2023-04-01T15:15:25;4.90;;;1.80;;
13493;SDS011;6819;50.886;4.332;2023-04-01T15:18:07;1.92;;;1.50;;
13493;SDS011;6819;50.886;4.332;2023-04-01T15:25:54;1.80;;;1.30;;
13493;SDS011;6819;50.886;4.332;2023-04-01T15:28:29;2.08;;;1.48;;
13493;SDS011;6819;50.886;4.332;2023-04-01T15:31:12;1.67;;;1.20;;
13493;SDS011;6819;50.886;4.332;2023-04-01T15:39:03;3.78;;;1.30;;
13493;SDS011;6819;50.886;4.332;2023-04-01T15:44:01;2.75;;;1.33;;
13493;SDS011;6819;50.886;4.332;2023-04-01T15:46:47;2.33;;;1.10;;
13493;SDS011;6819;50.886;4.332;2023-04-01T16:00:00;4.35;;;1.13;;
13493;SDS011;6819;50.886;4.332;2023-04-01T16:05:27;2.67;;;1.20;;
13493;SDS011;6819;50.886;4.332;2023-04-01T16:13:12;1.90;;;1.27;;
13493;SDS011;6819;50.886;4.332;2023-04-01T16:18:54;1.60;;;1.17;;
13493;SDS011;6819;50.886;4.332;2023-04-01T16:21:27;2.70;;;1.20;;
13493;SDS011;6819;50.886;4.332;2023-04-01T16:23:59;1.90;;;1.15;;
13493;SDS011;6819;50.886;4.332;2023-04-01T16:26:37;2.47;;;1.20;;
13493;SDS011;6819;50.886;4.332;2023-04-01T16:42:31;3.10;;;1.33;;
13493;SDS011;6819;50.886;4.332;2023-04-01T16:44:28;4.63;;;1.52;;
13493;SDS011;6819;50.886;4.332;2023-04-01T16:47:11;3.05;;;1.30;;
13493;SDS011;6819;50.886;4.332;2023-04-01T17:02:57;3.03;;;1.70;;
13493;SDS011;6819;50.886;4.332;2023-04-01T17:21:13;3.00;;;1.63;;
13493;SDS011;6819;50.886;4.332;2023-04-01T17:23:51;2.72;;;1.52;;
13493;SDS011;6819;50.886;4.332;2023-04-01T17:26:20;2.22;;;1.40;;
13493;SDS011;6819;50.886;4.332;2023-04-01T17:31:20;4.70;;;1.42;;
13493;SDS011;6819;50.886;4.332;2023-04-01T17:49:17;2.50;;;1.40;;
13493;SDS011;6819;50.886;4.332;2023-04-01T17:54:21;1.75;;;1.50;;
13493;SDS011;6819;50.886;4.332;2023-04-01T17:56:59;4.72;;;2.00;;
13493;SDS011;6819;50.886;4.332;2023-04-01T17:59:38;2.60;;;1.52;;
13493;SDS011;6819;50.886;4.332;2023-04-01T18:15:55;3.47;;;2.20;;
13493;SDS011;6819;50.886;4.332;2023-04-01T18:23:46;5.47;;;3.38;;
13493;SDS011;6819;50.886;4.332;2023-04-01T18:26:18;5.05;;;3.35;;
13493;SDS011;6819;50.886;4.332;2023-04-01T18:31:36;5.65;;;3.78;;
13493;SDS011;6819;50.886;4.332;2023-04-01T18:42:00;4.95;;;3.65;;
13493;SDS011;6819;50.886;4.332;2023-04-01T18:44:43;4.85;;;3.65;;
13493;SDS011;6819;50.886;4.332;2023-04-01T18:49:45;8.23;;;4.25;;
13493;SDS011;6819;50.886;4.332;2023-04-01T18:52:24;6.72;;;4.22;;
13493;SDS011;6819;50.886;4.332;2023-04-01T18:57:49;5.57;;;4.25;;
13493;SDS011;6819;50.886;4.332;2023-04-01T19:00:32;6.70;;;5.05;;
13493;SDS011;6819;50.886;4.332;2023-04-01T19:03:06;8.07;;;5.45;;
13493;SDS011;6819;50.886;4.332;2023-04-01T19:05:34;11.38;;;5.60;;
13493;SDS011;6819;50.886;4.332;2023-04-01T19:08:42;15.57;;;6.35;;
13493;SDS011;6819;50.886;4.332;2023-04-01T19:11:05;10.45;;;6.57;;
13493;SDS011;6819;50.886;4.332;2023-04-01T19:18:55;13.30;;;7.63;;
13493;SDS011;6819;50.886;4.332;2023-04-01T19:21:41;13.90;;;8.25;;
13493;SDS011;6819;50.886;4.332;2023-04-01T19:26:56;24.30;;;10.02;;
13493;SDS011;6819;50.886;4.332;2023-04-01T19:29:26;18.17;;;9.50;;
13493;SDS011;6819;50.886;4.332;2023-04-01T19:36:54;19.48;;;9.93;;
13493;SDS011;6819;50.886;4.332;2023-04-01T19:39:27;16.23;;;8.82;;
13493;SDS011;6819;50.886;4.332;2023-04-01T19:42:05;18.38;;;11.20;;
13493;SDS011;6819;50.886;4.332;2023-04-01T19:44:59;16.52;;;9.68;;
13493;SDS011;6819;50.886;4.332;2023-04-01T19:47:35;19.55;;;9.82;;
13493;SDS011;6819;50.886;4.332;2023-04-01T19:52:36;28.30;;;10.65;;
13493;SDS011;6819;50.886;4.332;2023-04-01T20:10:55;16.25;;;9.10;;
13493;SDS011;6819;50.886;4.332;2023-04-01T20:15:56;23.17;;;10.30;;
13493;SDS011;6819;50.886;4.332;2023-04-01T20:19:06;22.92;;;9.93;;
13493;SDS011;6819;50.886;4.332;2023-04-01T20:26:12;14.65;;;7.88;;
13493;SDS011;6819;50.886;4.332;2023-04-01T20:28:43;18.42;;;9.70;;
13493;SDS011;6819;50.886;4.332;2023-04-01T20:39:24;16.08;;;8.07;;
13493;SDS011;6819;50.886;4.332;2023-04-01T20:49:29;17.17;;;8.77;;
13493;SDS011;6819;50.886;4.332;2023-04-01T21:07:52;20.45;;;9.40;;
13493;SDS011;6819;50.886;4.332;2023-04-01T21:12:56;27.63;;;10.27;;
13493;SDS011;6819;50.886;4.332;2023-04-01T21:25:27;26.35;;;10.50;;
13493;SDS011;6819;50.886;4.332;2023-04-01T21:31:02;20.80;;;9.88;;
13493;SDS011;6819;50.886;4.332;2023-04-01T21:39:01;15.50;;;8.93;;
13493;SDS011;6819;50.886;4.332;2023-04-01T21:42:14;24.63;;;9.68;;
13493;SDS011;6819;50.886;4.332;2023-04-01T22:07:52;19.15;;;9.88;;
13493;SDS011;6819;50.886;4.332;2023-04-01T22:12:49;17.15;;;10.10;;
13493;SDS011;6819;50.886;4.332;2023-04-01T22:18:31;17.73;;;9.38;;
13493;SDS011;6819;50.886;4.332;2023-04-01T22:23:26;19.58;;;9.52;;
13493;SDS011;6819;50.886;4.332;2023-04-01T22:28:27;14.98;;;8.73;;
13493;SDS011;6819;50.886;4.332;2023-04-01T22:31:01;16.55;;;9.75;;
13493;SDS011;6819;50.886;4.332;2023-04-01T22:33:38;18.17;;;10.68;;
13493;SDS011;6819;50.886;4.332;2023-04-01T22:36:15;19.17;;;11.55;;
13493;SDS011;6819;50.886;4.332;2023-04-01T22:43:46;17.05;;;10.30;;
13493;SDS011;6819;50.886;4.332;2023-04-01T22:56:40;18.92;;;10.90;;
13493;SDS011;6819;50.886;4.332;2023-04-01T23:01:38;16.25;;;9.75;;
13493;SDS011;6819;50.886;4.332;2023-04-01T23:04:07;14.25;;;9.45;;
13493;SDS011;6819;50.886;4.332;2023-04-01T23:06:38;13.23;;;8.77;;
13493;SDS011;6819;50.886;4.332;2023-04-01T23:19:35;17.58;;;10.32;;
13493;SDS011;6819;50.886;4.332;2023-04-01T23:22:10;17.63;;;10.20;;
13493;SDS011;6819;50.886;4.332;2023-04-01T23:24:53;20.55;;;10.93;;
13493;SDS011;6819;50.886;4.332;2023-04-01T23:27:27;18.58;;;10.05;;
13493;SDS011;6819;50.886;4.332;2023-04-01T23:29:55;17.73;;;10.93;;
13493;SDS011;6819;50.886;4.332;2023-04-01T23:32:24;18.70;;;10.77;;
13493;SDS011;6819;50.886;4.332;2023-04-01T23:34:52;21.90;;;11.50;;
13493;SDS011;6819;50.886;4.332;2023-04-01T23:37:19;19.02;;;11.52;;
13493;SDS011;6819;50.886;4.332;2023-04-01T23:39:46;24.05;;;13.63;;
13493;SDS011;6819;50.886;4.332;2023-04-01T23:42:28;31.27;;;14.23;;
13493;SDS011;6819;50.886;4.332;2023-04-01T23:44:56;25.77;;;14.65;;
13493;SDS011;6819;50.886;4.332;2023-04-01T23:47:24;27.10;;;14.80;;
13493;SDS011;6819;50.886;4.332;2023-04-01T23:49:51;26.20;;;15.20;;
13493;SDS011;6819;50.886;4.332;2023-04-01T23:52:22;23.52;;;13.68;;
13493;SDS011;6819;50.886;4.332;2023-04-01T23:54:58;23.13;;;13.32;;
13493;SDS011;6819;50.886;4.332;2023-04-01T23:57:32;21.75;;;12.63;;
